createdAt,value
2022-08-05T00:00:28.641Z,25.09
2022-08-05T00:01:30.626Z,25.07
2022-08-05T00:02:35.047Z,25.07
2022-08-05T00:03:37.052Z,25.07
2022-08-05T00:04:40.186Z,25.07
2022-08-05T00:06:06.507Z,25.06
2022-08-05T00:06:47.063Z,25.06
2022-08-05T00:07:59.836Z,25.06
2022-08-05T00:08:53.171Z,25.05
2022-08-05T00:09:55.114Z,25.04
2022-08-05T00:10:57.067Z,25.03
2022-08-05T00:12:00.861Z,25.02
2022-08-05T00:13:04.249Z,25.02
2022-08-05T00:14:13.071Z,25.02
2022-08-05T00:15:54.343Z,25.01
2022-08-05T00:16:16.049Z,25.01
2022-08-05T00:17:20.255Z,25.00
2022-08-05T00:18:22.705Z,24.98
2022-08-05T00:19:33.511Z,24.99
2022-08-05T00:20:29.043Z,24.98
2022-08-05T00:21:35.630Z,24.95
2022-08-05T00:22:35.647Z,24.94
2022-08-05T00:23:46.579Z,24.93
2022-08-05T00:24:42.502Z,24.93
2022-08-05T00:25:45.936Z,24.93
2022-08-05T00:26:51.909Z,24.92
2022-08-05T00:27:52.167Z,24.92
2022-08-05T00:28:55.965Z,24.92
2022-08-05T00:29:57.915Z,24.91
2022-08-05T00:31:04.318Z,24.91
2022-08-05T00:32:13.295Z,24.90
2022-08-05T00:34:41.991Z,24.91
2022-08-05T00:34:54.081Z,24.90
2022-08-05T00:35:16.483Z,24.89
2022-08-05T00:37:13.075Z,24.87
2022-08-05T00:37:24.759Z,24.87
2022-08-05T00:38:30.780Z,24.87
2022-08-05T00:39:37.021Z,24.86
2022-08-05T00:40:34.553Z,24.85
2022-08-05T00:41:51.529Z,24.85
2022-08-05T00:42:42.862Z,24.85
2022-08-05T00:43:49.889Z,24.86
2022-08-05T00:44:50.459Z,24.87
2022-08-05T00:45:53.427Z,24.85
2022-08-05T00:47:02.205Z,24.86
2022-08-05T00:48:05.671Z,24.85
2022-08-05T00:49:03.377Z,24.85
2022-08-05T00:50:06.161Z,24.85
2022-08-05T00:51:09.015Z,24.84
2022-08-05T00:52:12.075Z,24.84
2022-08-05T00:54:01.063Z,24.84
2022-08-05T00:54:18.369Z,24.84
2022-08-05T00:55:20.325Z,24.84
2022-08-05T00:56:23.106Z,24.85
2022-08-05T00:57:38.071Z,24.84
2022-08-05T00:58:29.462Z,24.84
2022-08-05T00:59:34.635Z,24.84
2022-08-05T01:00:35.359Z,24.85
2022-08-05T01:01:42.596Z,24.85
2022-08-05T01:02:41.666Z,24.84
2022-08-05T01:03:45.467Z,24.84
2022-08-05T01:04:50.316Z,24.84
2022-08-05T01:05:54.456Z,24.83
2022-08-05T01:06:56.544Z,24.84
2022-08-05T01:08:42.039Z,24.83
2022-08-05T01:09:03.132Z,24.82
2022-08-05T01:10:05.369Z,24.82
2022-08-05T01:11:09.169Z,24.82
2022-08-05T01:12:18.525Z,24.82
2022-08-05T01:13:22.174Z,24.81
2022-08-05T01:14:27.933Z,24.80
2022-08-05T01:15:36.449Z,24.80
2022-08-05T01:16:28.144Z,24.79
2022-08-05T01:17:31.633Z,24.79
2022-08-05T01:18:35.426Z,24.78
2022-08-05T01:20:01.136Z,24.77
2022-08-05T01:20:42.199Z,24.78
2022-08-05T01:21:45.997Z,24.76
2022-08-05T01:22:51.022Z,24.75
2022-08-05T01:23:53.240Z,24.74
2022-08-05T01:24:56.564Z,24.68
2022-08-05T01:25:58.514Z,24.72
2022-08-05T01:27:17.539Z,24.71
2022-08-05T01:28:05.493Z,24.70
2022-08-05T01:29:09.288Z,24.68
2022-08-05T01:30:17.699Z,24.68
2022-08-05T01:31:15.752Z,24.66
2022-08-05T01:32:18.654Z,24.65
2022-08-05T01:33:20.888Z,24.65
2022-08-05T01:34:26.808Z,24.62
2022-08-05T01:35:51.832Z,24.61
2022-08-05T01:36:32.682Z,24.62
2022-08-05T01:37:36.572Z,24.60
2022-08-05T01:38:38.635Z,24.59
2022-08-05T01:39:47.262Z,24.55
2022-08-05T01:40:44.584Z,24.54
2022-08-05T01:41:46.545Z,24.53
2022-08-05T01:42:50.337Z,24.51
2022-08-05T01:43:52.290Z,24.51
2022-08-05T01:44:54.758Z,24.49
2022-08-05T01:45:57.187Z,24.47
2022-08-05T01:46:59.986Z,24.46
2022-08-05T01:48:01.937Z,24.45
2022-08-05T01:49:22.717Z,24.45
2022-08-05T01:50:08.818Z,24.44
2022-08-05T01:51:13.065Z,24.45
2022-08-05T01:52:17.826Z,24.43
2022-08-05T01:53:54.928Z,24.40
2022-08-05T01:54:25.672Z,24.40
2022-08-05T01:55:26.363Z,24.39
2022-08-05T01:58:12.658Z,24.35
2022-08-05T01:58:12.659Z,24.36
2022-08-05T01:58:44.717Z,24.34
2022-08-05T01:59:39.703Z,24.34
2022-08-05T02:00:41.757Z,24.33
2022-08-05T02:01:45.598Z,24.34
2022-08-05T02:02:53.582Z,24.33
2022-08-05T02:03:51.504Z,24.33
2022-08-05T02:04:53.559Z,24.33
2022-08-05T02:05:59.845Z,24.33
2022-08-05T02:06:59.408Z,24.33
2022-08-05T02:08:01.970Z,24.33
2022-08-05T02:09:04.136Z,24.31
2022-08-05T02:10:08.749Z,24.31
2022-08-05T02:11:11.640Z,24.32
2022-08-05T02:12:14.804Z,24.32
2022-08-05T02:13:17.165Z,24.32
2022-08-05T02:14:19.734Z,24.31
2022-08-05T02:15:21.685Z,24.32
2022-08-05T02:16:23.640Z,24.31
2022-08-05T02:18:28.451Z,24.32
2022-08-05T02:18:34.301Z,24.31
2022-08-05T02:19:34.144Z,24.31
2022-08-05T02:20:39.152Z,24.31
2022-08-05T02:21:43.430Z,24.31
2022-08-05T02:22:44.466Z,24.31
2022-08-05T02:23:48.467Z,24.32
2022-08-05T02:24:51.480Z,24.31
2022-08-05T02:25:54.214Z,24.32
2022-08-05T02:26:56.477Z,24.31
2022-08-05T02:28:00.477Z,24.30
2022-08-05T02:29:02.528Z,24.31
2022-08-05T02:30:06.325Z,24.31
2022-08-05T02:31:14.303Z,24.31
2022-08-05T02:32:12.689Z,24.31
2022-08-05T02:33:16.381Z,24.32
2022-08-05T02:34:20.179Z,24.31
2022-08-05T02:35:32.950Z,24.33
2022-08-05T02:36:31.152Z,24.32
2022-08-05T02:37:32.088Z,24.33
2022-08-05T02:38:35.488Z,24.33
2022-08-05T02:39:37.707Z,24.32
2022-08-05T02:40:41.516Z,24.33
2022-08-05T02:41:58.199Z,24.33
2022-08-05T02:42:53.911Z,24.33
2022-08-05T02:44:06.098Z,24.33
2022-08-05T02:44:57.215Z,24.33
2022-08-05T02:46:01.134Z,24.33
2022-08-05T02:47:04.156Z,24.33
2022-08-05T02:48:11.420Z,24.32
2022-08-05T02:49:11.075Z,24.32
2022-08-05T02:50:13.429Z,24.31
2022-08-05T02:51:15.394Z,24.31
2022-08-05T02:52:29.475Z,24.31
2022-08-05T02:53:21.126Z,24.31
2022-08-05T02:54:36.018Z,24.30
2022-08-05T02:55:54.766Z,24.31
2022-08-05T02:56:30.668Z,24.32
2022-08-05T02:58:10.420Z,24.32
2022-08-05T02:58:36.824Z,24.32
2022-08-05T02:59:50.256Z,24.33
2022-08-05T03:02:11.491Z,24.33
2022-08-05T03:03:13.365Z,24.30
2022-08-05T03:04:15.801Z,24.31
2022-08-05T03:05:17.933Z,24.30
2022-08-05T03:06:57.820Z,24.32
2022-08-05T03:08:01.430Z,24.32
2022-08-05T03:08:30.135Z,24.33
2022-08-05T03:09:37.453Z,24.33
2022-08-05T03:10:36.088Z,24.33
2022-08-05T03:11:55.241Z,24.33
2022-08-05T03:12:42.937Z,24.33
2022-08-05T03:13:52.172Z,24.34
2022-08-05T03:14:48.813Z,24.34
2022-08-05T03:15:51.863Z,24.33
2022-08-05T03:16:54.663Z,24.33
2022-08-05T03:17:57.570Z,24.32
2022-08-05T03:18:59.797Z,24.32
2022-08-05T03:20:02.570Z,24.33
2022-08-05T03:21:04.530Z,24.33
2022-08-05T03:22:16.388Z,24.32
2022-08-05T03:23:12.046Z,24.33
2022-08-05T03:24:14.681Z,24.34
2022-08-05T03:25:33.821Z,24.33
2022-08-05T03:26:31.682Z,24.33
2022-08-05T03:27:25.309Z,24.33
2022-08-05T03:28:28.941Z,24.32
2022-08-05T03:29:44.661Z,24.33
2022-08-05T03:30:34.796Z,24.32
2022-08-05T03:31:57.219Z,24.34
2022-08-05T03:32:40.746Z,24.34
2022-08-05T03:33:52.652Z,24.35
2022-08-05T03:34:50.677Z,24.35
2022-08-05T03:35:50.289Z,24.35
2022-08-05T03:36:53.796Z,24.35
2022-08-05T03:37:56.141Z,24.37
2022-08-05T03:38:59.970Z,24.38
2022-08-05T03:40:03.937Z,24.39
2022-08-05T03:41:08.482Z,24.38
2022-08-05T03:42:10.403Z,24.40
2022-08-05T03:43:59.197Z,24.40
2022-08-05T03:44:19.647Z,24.40
2022-08-05T03:45:21.801Z,24.40
2022-08-05T03:46:23.738Z,24.41
2022-08-05T03:47:30.511Z,24.41
2022-08-05T03:48:35.186Z,24.40
2022-08-05T03:49:51.636Z,24.40
2022-08-05T03:50:38.819Z,24.41
2022-08-05T03:52:37.935Z,24.42
2022-08-05T03:55:00.262Z,24.42
2022-08-05T03:55:00.425Z,24.41
2022-08-05T03:55:52.302Z,24.42
2022-08-05T03:56:10.493Z,24.42
2022-08-05T03:57:00.986Z,24.44
2022-08-05T03:58:04.775Z,24.45
2022-08-05T03:59:07.344Z,24.45
2022-08-05T04:00:11.856Z,24.46
2022-08-05T04:01:15.717Z,24.46
2022-08-05T04:02:38.456Z,24.49
2022-08-05T04:03:28.207Z,24.49
2022-08-05T04:04:28.271Z,24.51
2022-08-05T04:05:33.850Z,24.52
2022-08-05T04:06:34.131Z,24.53
2022-08-05T04:07:36.070Z,24.54
2022-08-05T04:08:39.815Z,24.55
2022-08-05T04:09:53.642Z,24.56
2022-08-05T04:10:45.613Z,24.56
2022-08-05T04:11:50.722Z,24.56
2022-08-05T04:12:51.363Z,24.58
2022-08-05T04:13:53.843Z,24.59
2022-08-05T04:14:57.558Z,24.61
2022-08-05T04:16:04.297Z,24.63
2022-08-05T04:17:03.341Z,24.63
2022-08-05T04:18:09.292Z,24.64
2022-08-05T04:19:10.963Z,24.67
2022-08-05T04:20:13.223Z,24.69
2022-08-05T04:21:19.913Z,24.70
2022-08-05T04:22:21.353Z,24.73
2022-08-05T04:24:52.856Z,24.74
2022-08-05T04:25:57.805Z,24.72
2022-08-05T04:26:52.507Z,24.75
2022-08-05T04:27:57.496Z,24.78
2022-08-05T04:28:58.234Z,24.80
2022-08-05T04:30:03.588Z,24.80
2022-08-05T04:31:10.447Z,24.81
2022-08-05T04:32:09.516Z,24.82
2022-08-05T04:33:11.469Z,24.83
2022-08-05T04:34:31.382Z,24.86
2022-08-05T04:35:19.758Z,24.86
2022-08-05T04:36:44.911Z,24.86
2022-08-05T04:38:02.933Z,24.89
2022-08-05T04:38:39.661Z,24.91
2022-08-05T04:39:35.485Z,24.92
2022-08-05T04:40:37.836Z,24.94
2022-08-05T04:41:41.627Z,24.96
2022-08-05T04:42:43.582Z,24.99
2022-08-05T04:43:52.024Z,25.01
2022-08-05T04:44:51.172Z,25.03
2022-08-05T04:45:54.977Z,25.07
2022-08-05T04:46:57.126Z,25.09
2022-08-05T04:48:00.613Z,25.12
2022-08-05T04:49:03.257Z,25.15
2022-08-05T04:50:11.190Z,25.16
2022-08-05T04:51:11.438Z,25.19
2022-08-05T04:52:13.668Z,25.22
2022-08-05T04:53:17.032Z,25.24
2022-08-05T04:54:18.984Z,25.28
2022-08-05T04:55:23.921Z,25.30
2022-08-05T04:56:35.222Z,25.32
2022-08-05T04:57:29.616Z,25.35
2022-08-05T04:58:32.323Z,25.39
2022-08-05T04:59:38.590Z,25.42
2022-08-05T05:00:38.689Z,25.45
2022-08-05T05:02:07.136Z,25.48
2022-08-05T05:02:45.035Z,25.51
2022-08-05T05:03:47.615Z,25.53
2022-08-05T05:04:50.530Z,25.56
2022-08-05T05:06:40.409Z,25.58
2022-08-05T05:06:58.184Z,25.60
2022-08-05T05:08:01.510Z,25.63
2022-08-05T05:09:05.433Z,25.65
2022-08-05T05:10:08.031Z,25.68
2022-08-05T05:11:09.974Z,25.69
2022-08-05T05:12:13.670Z,25.71
2022-08-05T05:13:17.062Z,25.72
2022-08-05T05:14:19.518Z,25.73
2022-08-05T05:15:57.059Z,25.74
2022-08-05T05:16:30.285Z,25.75
2022-08-05T05:17:56.929Z,25.77
2022-08-05T05:18:34.403Z,25.79
2022-08-05T05:19:44.225Z,25.82
2022-08-05T05:20:40.139Z,25.83
2022-08-05T05:21:42.093Z,25.87
2022-08-05T05:22:45.986Z,25.88
2022-08-05T05:24:02.714Z,25.90
2022-08-05T05:24:57.429Z,25.92
2022-08-05T05:25:57.182Z,25.94
2022-08-05T05:26:59.434Z,25.95
2022-08-05T05:28:01.386Z,25.97
2022-08-05T05:29:14.340Z,25.99
2022-08-05T05:30:07.541Z,26.00
2022-08-05T05:31:11.241Z,26.03
2022-08-05T05:32:15.540Z,26.05
2022-08-05T05:33:17.549Z,26.05
2022-08-05T05:34:26.581Z,26.07
2022-08-05T05:35:23.447Z,26.09
2022-08-05T05:36:28.828Z,26.11
2022-08-05T05:37:59.137Z,26.13
2022-08-05T05:38:34.648Z,26.15
2022-08-05T05:39:36.618Z,26.17
2022-08-05T05:40:42.505Z,26.19
2022-08-05T05:41:43.261Z,26.21
2022-08-05T05:42:47.236Z,26.23
2022-08-05T05:43:58.461Z,26.25
2022-08-05T05:44:53.104Z,26.28
2022-08-05T05:45:56.807Z,26.30
2022-08-05T05:47:04.100Z,26.32
2022-08-05T05:48:06.178Z,26.33
2022-08-05T05:49:22.706Z,26.35
2022-08-05T05:50:11.264Z,26.37
2022-08-05T05:51:16.103Z,26.39
2022-08-05T05:52:28.446Z,26.40
2022-08-05T05:53:22.995Z,26.42
2022-08-05T05:54:50.537Z,26.43
2022-08-05T05:55:52.345Z,26.42
2022-08-05T05:56:34.734Z,26.46
2022-08-05T05:57:43.031Z,26.47
2022-08-05T05:58:40.520Z,26.47
2022-08-05T05:59:43.345Z,26.47
2022-08-05T06:00:45.943Z,26.48
2022-08-05T06:01:57.774Z,26.49
2022-08-05T06:02:52.306Z,26.49
2022-08-05T06:04:01.742Z,26.50
2022-08-05T06:04:57.996Z,26.51
2022-08-05T06:06:00.415Z,26.52
2022-08-05T06:07:03.209Z,26.53
2022-08-05T06:08:05.242Z,26.53
2022-08-05T06:09:07.711Z,26.53
2022-08-05T06:10:10.791Z,26.53
2022-08-05T06:11:13.431Z,26.53
2022-08-05T06:12:15.618Z,26.55
2022-08-05T06:13:17.566Z,26.55
2022-08-05T06:14:19.619Z,26.55
2022-08-05T06:15:24.066Z,26.56
2022-08-05T06:16:28.432Z,26.55
2022-08-05T06:17:30.980Z,26.57
2022-08-05T06:18:33.060Z,26.58
2022-08-05T06:19:36.754Z,26.58
2022-08-05T06:20:38.813Z,26.60
2022-08-05T06:21:42.306Z,26.61
2022-08-05T06:22:44.562Z,26.61
2022-08-05T06:23:46.522Z,26.62
2022-08-05T06:24:50.201Z,26.63
2022-08-05T06:26:12.584Z,26.63
2022-08-05T06:26:56.269Z,26.65
2022-08-05T06:28:10.686Z,26.66
2022-08-05T06:29:03.499Z,26.67
2022-08-05T06:30:17.717Z,26.68
2022-08-05T06:31:11.317Z,26.70
2022-08-05T06:32:25.585Z,26.71
2022-08-05T06:33:19.354Z,26.70
2022-08-05T06:34:20.998Z,26.72
2022-08-05T06:36:07.601Z,26.71
2022-08-05T06:36:26.733Z,26.71
2022-08-05T06:37:57.083Z,26.72
2022-08-05T06:38:35.598Z,26.74
2022-08-05T06:39:38.166Z,26.74
2022-08-05T06:40:42.116Z,26.75
2022-08-05T06:41:44.812Z,26.76
2022-08-05T06:42:46.742Z,26.76
2022-08-05T06:43:57.634Z,26.77
2022-08-05T06:44:52.399Z,26.77
2022-08-05T06:46:03.999Z,26.77
2022-08-05T06:46:58.957Z,26.77
2022-08-05T06:48:36.023Z,26.78
2022-08-05T06:49:06.447Z,26.79
2022-08-05T06:50:10.648Z,26.80
2022-08-05T06:51:21.819Z,26.80
2022-08-05T06:52:37.758Z,26.81
2022-08-05T06:53:27.834Z,26.81
2022-08-05T06:54:25.800Z,26.81
2022-08-05T06:55:28.002Z,26.82
2022-08-05T06:56:34.176Z,26.83
2022-08-05T06:58:56.690Z,26.84
2022-08-05T06:59:59.260Z,26.82
2022-08-05T07:01:02.683Z,26.82
2022-08-05T07:02:04.696Z,26.81
2022-08-05T07:03:09.649Z,26.82
2022-08-05T07:04:10.440Z,26.82
2022-08-05T07:05:18.639Z,26.82
2022-08-05T07:06:19.164Z,26.81
2022-08-05T07:07:24.011Z,26.81
2022-08-05T07:08:25.420Z,26.81
2022-08-05T07:09:27.368Z,26.82
2022-08-05T07:10:32.668Z,26.81
2022-08-05T07:11:36.860Z,26.81
2022-08-05T07:12:38.658Z,26.81
2022-08-05T07:13:58.734Z,26.82
2022-08-05T07:14:46.250Z,26.83
2022-08-05T07:16:00.801Z,26.83
2022-08-05T07:17:56.464Z,26.84
2022-08-05T07:18:06.296Z,26.86
2022-08-05T07:19:01.232Z,26.87
2022-08-05T07:20:32.016Z,26.90
2022-08-05T07:21:07.799Z,26.91
2022-08-05T07:22:11.083Z,26.91
2022-08-05T07:23:26.126Z,26.93
2022-08-05T07:24:18.460Z,26.94
2022-08-05T07:25:56.328Z,26.95
2022-08-05T07:26:26.171Z,26.94
2022-08-05T07:27:57.197Z,26.95
2022-08-05T07:28:32.736Z,26.96
2022-08-05T07:30:25.575Z,26.97
2022-08-05T07:30:39.772Z,26.98
2022-08-05T07:31:54.567Z,26.99
2022-08-05T07:32:46.484Z,26.98
2022-08-05T07:33:50.279Z,27.01
2022-08-05T07:34:52.233Z,27.01
2022-08-05T07:36:19.294Z,27.02
2022-08-05T07:37:01.161Z,27.03
2022-08-05T07:38:03.209Z,27.03
2022-08-05T07:39:07.688Z,27.04
2022-08-05T07:40:31.589Z,27.04
2022-08-05T07:42:08.645Z,27.05
2022-08-05T07:42:31.555Z,27.06
2022-08-05T07:43:24.851Z,27.07
2022-08-05T07:44:26.808Z,27.06
2022-08-05T07:45:56.526Z,27.06
2022-08-05T07:46:33.681Z,27.09
2022-08-05T07:47:42.617Z,27.09
2022-08-05T07:49:02.710Z,27.10
2022-08-05T07:49:54.224Z,27.11
2022-08-05T07:50:47.429Z,27.13
2022-08-05T07:51:53.633Z,27.14
2022-08-05T07:52:53.998Z,27.15
2022-08-05T07:53:55.945Z,27.16
2022-08-05T07:55:00.374Z,27.17
2022-08-05T07:56:05.121Z,27.17
2022-08-05T07:57:16.878Z,27.19
2022-08-05T07:58:11.431Z,27.20
2022-08-05T07:59:15.746Z,27.20
2022-08-05T08:00:18.000Z,27.21
2022-08-05T08:01:21.825Z,27.22
2022-08-05T08:02:26.706Z,27.22
2022-08-05T08:03:44.249Z,27.22
2022-08-05T08:04:37.701Z,27.22
2022-08-05T08:05:39.491Z,27.23
2022-08-05T08:06:39.348Z,27.23
2022-08-05T08:07:58.936Z,27.24
2022-08-05T08:08:46.838Z,27.23
2022-08-05T08:09:52.286Z,27.22
2022-08-05T08:10:54.527Z,27.23
2022-08-05T08:12:01.811Z,27.23
2022-08-05T08:13:01.492Z,27.22
2022-08-05T08:14:03.772Z,27.22
2022-08-05T08:15:09.748Z,27.23
2022-08-05T08:16:35.065Z,27.23
2022-08-05T08:17:16.102Z,27.23
2022-08-05T08:18:20.918Z,27.24
2022-08-05T08:20:10.476Z,27.23
2022-08-05T08:20:43.455Z,27.23
2022-08-05T08:21:29.716Z,27.23
2022-08-05T08:22:32.348Z,27.23
2022-08-05T08:24:01.408Z,27.24
2022-08-05T08:24:51.547Z,27.24
2022-08-05T08:26:02.429Z,27.23
2022-08-05T08:26:46.040Z,27.24
2022-08-05T08:27:51.472Z,27.23
2022-08-05T08:28:59.278Z,27.23
2022-08-05T08:30:05.097Z,27.24
2022-08-05T08:30:59.797Z,27.24
2022-08-05T08:32:03.068Z,27.24
2022-08-05T08:33:08.199Z,27.24
2022-08-05T08:34:11.378Z,27.24
2022-08-05T08:35:14.158Z,27.26
2022-08-05T08:36:38.538Z,27.26
2022-08-05T08:37:20.309Z,27.26
2022-08-05T08:38:35.486Z,27.26
2022-08-05T08:39:27.923Z,27.27
2022-08-05T08:40:30.579Z,27.27
2022-08-05T08:41:50.608Z,27.27
2022-08-05T08:42:50.699Z,27.27
2022-08-05T08:45:20.091Z,27.27
2022-08-05T08:45:20.398Z,27.29
2022-08-05T08:45:48.313Z,27.30
2022-08-05T08:46:52.226Z,27.28
2022-08-05T08:48:10.593Z,27.30
2022-08-05T08:49:17.413Z,27.30
2022-08-05T08:50:22.251Z,27.29
2022-08-05T08:52:02.423Z,27.30
2022-08-05T08:52:13.727Z,27.31
2022-08-05T08:53:15.704Z,27.31
2022-08-05T08:54:18.169Z,27.32
2022-08-05T08:56:02.103Z,27.32
2022-08-05T08:56:26.983Z,27.34
2022-08-05T08:57:42.340Z,27.35
2022-08-05T08:58:43.228Z,27.37
2022-08-05T08:59:37.455Z,27.38
2022-08-05T09:00:39.657Z,27.40
2022-08-05T09:01:42.609Z,27.41
2022-08-05T09:02:45.151Z,27.44
2022-08-05T09:03:54.331Z,27.45
2022-08-05T09:05:16.131Z,27.46
2022-08-05T09:06:09.180Z,27.47
2022-08-05T09:07:00.345Z,27.48
2022-08-05T09:08:02.391Z,27.48
2022-08-05T09:09:04.343Z,27.49
2022-08-05T09:10:06.711Z,27.50
2022-08-05T09:11:12.168Z,27.51
2022-08-05T09:12:20.732Z,27.53
2022-08-05T09:13:16.869Z,27.55
2022-08-05T09:14:56.649Z,27.56
2022-08-05T09:15:22.615Z,27.57
2022-08-05T09:16:26.915Z,27.60
2022-08-05T09:17:42.518Z,27.59
2022-08-05T09:18:32.877Z,27.63
2022-08-05T09:19:36.685Z,27.64
2022-08-05T09:20:39.342Z,27.65
2022-08-05T09:22:23.267Z,27.67
2022-08-05T09:22:51.905Z,27.70
2022-08-05T09:23:49.603Z,27.72
2022-08-05T09:24:53.404Z,27.74
2022-08-05T09:26:01.240Z,27.76
2022-08-05T09:26:59.659Z,27.78
2022-08-05T09:28:06.029Z,27.80
2022-08-05T09:29:05.402Z,27.82
2022-08-05T09:30:10.332Z,27.84
2022-08-05T09:31:22.408Z,27.88
2022-08-05T09:32:42.252Z,27.90
2022-08-05T09:33:21.724Z,27.92
2022-08-05T09:34:26.133Z,27.94
2022-08-05T09:35:27.681Z,27.96
2022-08-05T09:36:33.404Z,27.98
2022-08-05T09:38:12.072Z,27.99
2022-08-05T09:38:39.370Z,28.03
2022-08-05T09:39:45.587Z,28.05
2022-08-05T09:40:52.651Z,28.06
2022-08-05T09:41:56.136Z,28.08
2022-08-05T09:42:52.790Z,28.09
2022-08-05T09:43:55.866Z,28.10
2022-08-05T09:45:17.320Z,28.11
2022-08-05T09:46:07.015Z,28.13
2022-08-05T09:47:10.439Z,28.16
2022-08-05T09:48:12.306Z,28.17
2022-08-05T09:49:19.060Z,28.18
2022-08-05T09:50:38.920Z,28.20
2022-08-05T09:51:24.086Z,28.22
2022-08-05T09:52:27.880Z,28.24
2022-08-05T09:53:54.356Z,28.25
2022-08-05T09:54:33.733Z,28.26
2022-08-05T09:55:56.620Z,28.27
2022-08-05T09:56:40.814Z,28.27
2022-08-05T09:57:44.617Z,28.28
2022-08-05T09:58:47.481Z,28.31
2022-08-05T09:59:51.279Z,28.31
2022-08-05T10:00:56.431Z,28.32
2022-08-05T10:01:59.081Z,28.34
2022-08-05T10:03:01.048Z,28.36
2022-08-05T10:04:10.540Z,28.38
2022-08-05T10:05:08.526Z,28.40
2022-08-05T10:06:15.513Z,28.41
2022-08-05T10:07:19.937Z,28.44
2022-08-05T10:08:36.791Z,28.44
2022-08-05T10:09:28.095Z,28.44
2022-08-05T10:10:32.532Z,28.46
2022-08-05T10:11:35.118Z,28.47
2022-08-05T10:12:37.392Z,28.47
2022-08-05T10:13:47.370Z,28.48
2022-08-05T10:14:44.916Z,28.48
2022-08-05T10:15:48.218Z,28.49
2022-08-05T10:16:52.354Z,28.48
2022-08-05T10:17:56.750Z,28.49
2022-08-05T10:18:57.962Z,28.48
2022-08-05T10:20:03.689Z,28.49
2022-08-05T10:21:08.352Z,28.50
2022-08-05T10:22:09.157Z,28.50
2022-08-05T10:23:33.907Z,28.50
2022-08-05T10:24:16.647Z,28.51
2022-08-05T10:25:18.698Z,28.52
2022-08-05T10:26:24.395Z,28.52
2022-08-05T10:27:26.283Z,28.52
2022-08-05T10:28:30.646Z,28.52
2022-08-05T10:30:41.387Z,28.52
2022-08-05T10:31:20.331Z,28.53
2022-08-05T10:32:51.963Z,28.53
2022-08-05T10:32:53.916Z,28.53
2022-08-05T10:33:54.307Z,28.52
2022-08-05T10:36:13.545Z,28.52
2022-08-05T10:37:17.344Z,28.48
2022-08-05T10:38:20.834Z,28.48
2022-08-05T10:40:03.138Z,28.49
2022-08-05T10:40:28.998Z,28.49
2022-08-05T10:41:45.227Z,28.50
2022-08-05T10:42:34.955Z,28.52
2022-08-05T10:43:39.296Z,28.51
2022-08-05T10:44:42.018Z,28.49
2022-08-05T10:45:44.018Z,28.49
2022-08-05T10:46:46.178Z,28.48
2022-08-05T10:48:29.407Z,28.49
2022-08-05T10:48:58.814Z,28.49
2022-08-05T10:50:36.203Z,28.50
2022-08-05T10:51:03.356Z,28.50
2022-08-05T10:52:10.608Z,28.49
2022-08-05T10:53:10.392Z,28.50
2022-08-05T10:54:30.581Z,28.49
2022-08-05T10:55:18.526Z,28.50
2022-08-05T10:56:25.224Z,28.51
2022-08-05T10:57:24.641Z,28.52
2022-08-05T10:58:48.027Z,28.54
2022-08-05T11:00:04.464Z,28.54
2022-08-05T11:00:36.029Z,28.55
2022-08-05T11:01:54.983Z,28.55
2022-08-05T11:02:50.404Z,28.57
2022-08-05T11:03:49.831Z,28.57
2022-08-05T11:04:51.837Z,28.58
2022-08-05T11:05:53.794Z,28.60
2022-08-05T11:06:57.576Z,28.61
2022-08-05T11:08:01.742Z,28.63
2022-08-05T11:09:03.326Z,28.65
2022-08-05T11:10:09.898Z,28.67
2022-08-05T11:11:16.491Z,28.68
2022-08-05T11:12:13.070Z,28.70
2022-08-05T11:13:15.232Z,28.72
2022-08-05T11:14:17.798Z,28.74
2022-08-05T11:15:21.013Z,28.76
2022-08-05T11:16:47.835Z,28.77
2022-08-05T11:17:57.515Z,28.79
2022-08-05T11:18:34.169Z,28.81
2022-08-05T11:20:10.556Z,28.83
2022-08-05T11:20:41.811Z,28.85
2022-08-05T11:21:48.942Z,28.87
2022-08-05T11:22:50.096Z,28.87
2022-08-05T11:24:05.316Z,28.90
2022-08-05T11:26:03.532Z,28.90
2022-08-05T11:26:06.279Z,28.92
2022-08-05T11:27:04.368Z,28.94
2022-08-05T11:28:06.419Z,28.94
2022-08-05T11:29:13.059Z,28.95
2022-08-05T11:30:14.022Z,28.96
2022-08-05T11:31:53.978Z,28.98
2022-08-05T11:32:21.610Z,29.01
2022-08-05T11:33:25.325Z,29.02
2022-08-05T11:34:29.198Z,29.04
2022-08-05T11:35:32.993Z,29.05
2022-08-05T11:36:42.707Z,29.07
2022-08-05T11:38:30.692Z,29.08
2022-08-05T11:38:46.054Z,29.11
2022-08-05T11:39:47.972Z,29.12
2022-08-05T11:40:50.269Z,29.15
2022-08-05T11:42:01.767Z,29.17
2022-08-05T11:42:56.082Z,29.18
2022-08-05T11:44:05.742Z,29.19
2022-08-05T11:45:03.213Z,29.22
2022-08-05T11:46:16.088Z,29.23
2022-08-05T11:47:15.166Z,29.24
2022-08-05T11:48:13.312Z,29.25
2022-08-05T11:49:16.706Z,29.28
2022-08-05T11:50:19.261Z,29.28
2022-08-05T11:51:44.449Z,29.30
2022-08-05T11:52:29.189Z,29.30
2022-08-05T11:53:29.431Z,29.33
2022-08-05T11:54:34.515Z,29.33
2022-08-05T11:55:37.123Z,29.34
2022-08-05T11:56:41.088Z,29.36
2022-08-05T11:58:11.011Z,29.34
2022-08-05T11:58:53.135Z,29.36
2022-08-05T11:59:50.932Z,29.34
2022-08-05T12:00:53.129Z,29.34
2022-08-05T12:01:56.000Z,29.37
2022-08-05T12:02:58.583Z,29.39
2022-08-05T12:04:00.614Z,29.41
2022-08-05T12:05:06.805Z,29.41
2022-08-05T12:06:10.228Z,29.44
2022-08-05T12:07:10.373Z,29.45
2022-08-05T12:08:18.423Z,29.45
2022-08-05T12:09:19.969Z,29.48
2022-08-05T12:10:20.137Z,29.48
2022-08-05T12:11:22.063Z,29.49
2022-08-05T12:12:23.918Z,29.50
2022-08-05T12:13:28.059Z,29.51
2022-08-05T12:14:31.300Z,29.50
2022-08-05T12:15:38.231Z,29.51
2022-08-05T12:16:38.786Z,29.52
2022-08-05T12:18:02.914Z,29.52
2022-08-05T12:18:49.013Z,29.55
2022-08-05T12:20:25.237Z,29.55
2022-08-05T12:20:52.443Z,29.55
2022-08-05T12:21:54.395Z,29.57
2022-08-05T12:22:58.184Z,29.58
2022-08-05T12:24:04.991Z,29.59
2022-08-05T12:25:03.930Z,29.60
2022-08-05T12:26:07.011Z,29.61
2022-08-05T12:27:09.714Z,29.63
2022-08-05T12:28:12.041Z,29.62
2022-08-05T12:29:16.186Z,29.64
2022-08-05T12:30:19.439Z,29.63
2022-08-05T12:31:28.071Z,29.64
2022-08-05T12:32:25.436Z,29.63
2022-08-05T12:33:36.430Z,29.63
2022-08-05T12:34:31.371Z,29.64
2022-08-05T12:35:37.021Z,29.63
2022-08-05T12:36:37.659Z,29.64
2022-08-05T12:37:40.470Z,29.64
2022-08-05T12:38:42.422Z,29.65
2022-08-05T12:39:44.816Z,29.67
2022-08-05T12:40:48.578Z,29.66
2022-08-05T12:41:57.985Z,29.65
2022-08-05T12:42:56.272Z,29.63
2022-08-05T12:43:58.227Z,29.62
2022-08-05T12:45:00.186Z,29.59
2022-08-05T12:46:02.342Z,29.55
2022-08-05T12:47:04.801Z,29.53
2022-08-05T12:48:17.668Z,29.48
2022-08-05T12:49:13.024Z,29.45
2022-08-05T12:50:16.611Z,29.40
2022-08-05T12:52:10.538Z,29.34
2022-08-05T12:52:26.734Z,29.28
2022-08-05T12:53:36.998Z,29.21
2022-08-05T12:54:31.473Z,29.13
2022-08-05T12:55:35.394Z,29.08
2022-08-05T12:56:37.492Z,28.99
2022-08-05T12:58:38.416Z,28.91
2022-08-05T12:58:52.290Z,28.84
2022-08-05T13:00:08.353Z,28.77
2022-08-05T13:02:03.287Z,28.66
2022-08-05T13:02:04.060Z,28.73
2022-08-05T13:02:58.914Z,28.61
2022-08-05T13:04:00.938Z,28.55
2022-08-05T13:05:04.718Z,28.49
2022-08-05T13:06:06.873Z,28.43
2022-08-05T13:07:10.586Z,28.38
2022-08-05T13:08:14.266Z,28.33
2022-08-05T13:09:27.896Z,28.28
2022-08-05T13:10:22.381Z,28.24
2022-08-05T13:11:57.910Z,28.20
2022-08-05T13:12:28.574Z,28.17
2022-08-05T13:14:04.568Z,28.14
2022-08-05T13:14:36.371Z,28.10
2022-08-05T13:15:50.348Z,28.07
2022-08-05T13:16:42.166Z,28.05
2022-08-05T13:17:45.147Z,28.01
2022-08-05T13:18:48.946Z,27.99
2022-08-05T13:19:53.125Z,27.96
2022-08-05T13:20:55.327Z,27.95
2022-08-05T13:21:57.979Z,27.92
2022-08-05T13:23:01.154Z,27.91
2022-08-05T13:25:52.623Z,27.86
2022-08-05T13:26:30.444Z,27.83
2022-08-05T13:27:38.184Z,27.82
2022-08-05T13:28:36.124Z,27.81
2022-08-05T13:29:39.901Z,27.77
2022-08-05T13:30:43.799Z,27.71
2022-08-05T13:32:03.979Z,27.64
2022-08-05T13:32:51.296Z,27.58
2022-08-05T13:34:20.209Z,27.52
2022-08-05T13:34:58.067Z,27.46
2022-08-05T13:36:01.981Z,27.40
2022-08-05T13:37:03.703Z,27.33
2022-08-05T13:38:07.403Z,27.23
2022-08-05T13:40:12.860Z,27.17
2022-08-05T13:40:27.459Z,27.07
2022-08-05T13:41:17.614Z,27.00
2022-08-05T13:42:19.535Z,26.93